createdAt,value
2023-02-28T00:00:49.401Z,99782.69
2023-02-28T00:03:51.118Z,99786.16
2023-02-28T00:06:52.701Z,99783.50
2023-02-28T00:09:55.813Z,99772.09
2023-02-28T00:13:00.425Z,99778.25
2023-02-28T00:16:03.154Z,99778.25
2023-02-28T00:19:04.707Z,99770.34
2023-02-28T00:22:06.594Z,99766.78
2023-02-28T00:25:10.465Z,99767.59
2023-02-28T00:28:12.095Z,99764.06
2023-02-28T00:31:13.857Z,99769.31
2023-02-28T00:34:15.417Z,99763.13
2023-02-28T00:37:17.151Z,99767.50
2023-02-28T00:40:20.139Z,99761.38
2023-02-28T00:43:21.991Z,99760.50
2023-02-28T00:46:23.552Z,99766.63
2023-02-28T00:49:26.360Z,99759.53
2023-02-28T00:52:28.014Z,99766.53
2023-02-28T00:55:31.459Z,99770.03
2023-02-28T00:58:33.214Z,99767.38
2023-02-28T01:01:35.511Z,99769.09
2023-02-28T01:04:37.441Z,99769.91
2023-02-28T01:07:39.432Z,99775.16
2023-02-28T01:10:42.524Z,99774.19
2023-02-28T01:13:45.166Z,99776.75
2023-02-28T01:16:47.539Z,99774.94
2023-02-28T01:19:49.122Z,99778.38
2023-02-28T01:22:50.666Z,99775.69
2023-02-28T01:25:53.643Z,99780.84
2023-02-28T01:28:55.366Z,99779.88
2023-02-28T01:31:58.198Z,99776.34
2023-02-28T01:34:59.767Z,99779.72
2023-02-28T01:38:15.784Z,99774.41
2023-02-28T01:41:25.200Z,99773.50
2023-02-28T01:44:47.239Z,99778.72
2023-02-28T01:47:49.483Z,99772.47
2023-02-28T01:50:51.250Z,99772.47
2023-02-28T01:53:56.749Z,99776.72
2023-02-28T01:57:01.905Z,99767.91
2023-02-28T02:00:06.129Z,99762.56
2023-02-28T02:03:17.364Z,99764.25
2023-02-28T02:06:19.076Z,99774.75
2023-02-28T02:09:21.068Z,99767.69
2023-02-28T02:12:29.390Z,99762.41
2023-02-28T02:15:33.766Z,99765.84
2023-02-28T02:18:39.110Z,99763.19
2023-02-28T02:22:04.905Z,99761.47
2023-02-28T02:25:20.647Z,99759.66
2023-02-28T02:28:34.690Z,99761.41
2023-02-28T02:31:54.401Z,99757.13
2023-02-28T02:35:04.221Z,99752.75
2023-02-28T02:38:10.240Z,99756.25
2023-02-28T02:41:15.533Z,99752.72
2023-02-28T02:44:21.543Z,99748.28
2023-02-28T02:47:28.621Z,99749.88
2023-02-28T02:50:34.640Z,99743.63
2023-02-28T02:53:38.189Z,99743.56
2023-02-28T02:56:42.265Z,99745.25
2023-02-28T02:59:44.219Z,99740.78
2023-02-28T03:02:46.721Z,99745.13
2023-02-28T03:05:51.430Z,99751.25
2023-02-28T03:08:53.457Z,99752.13
2023-02-28T03:11:57.955Z,99753.00
2023-02-28T03:15:05.239Z,99744.25
2023-02-28T03:18:09.372Z,99753.00
2023-02-28T03:21:18.911Z,99740.75
2023-02-28T03:24:23.669Z,99745.09
2023-02-28T03:27:28.495Z,99746.91
2023-02-28T03:30:32.826Z,99747.84
2023-02-28T03:33:36.959Z,99742.53
2023-02-28T03:36:45.521Z,99739.94
2023-02-28T03:39:50.200Z,99746.91
2023-02-28T03:42:55.107Z,99745.94
2023-02-28T03:45:57.446Z,99739.81
2023-02-28T03:49:03.176Z,99745.03
2023-02-28T03:52:07.101Z,99748.53
2023-02-28T03:55:11.253Z,99743.28
2023-02-28T03:58:17.190Z,99740.59
2023-02-28T04:01:21.321Z,99740.56
2023-02-28T04:04:23.745Z,99739.69
2023-02-28T04:07:37.999Z,99743.19
2023-02-28T04:10:40.039Z,99745.81
2023-02-28T04:13:41.619Z,99742.31
2023-02-28T04:16:43.373Z,99738.75
2023-02-28T04:19:45.232Z,99743.06
2023-02-28T04:22:48.547Z,99740.38
2023-02-28T04:25:52.226Z,99736.88
2023-02-28T04:28:53.767Z,99741.34
2023-02-28T04:31:55.570Z,99741.34
2023-02-28T04:34:57.220Z,99752.66
2023-02-28T04:38:00.529Z,99743.91
2023-02-28T04:41:02.209Z,99748.25
2023-02-28T04:44:03.918Z,99757.91
2023-02-28T04:47:05.689Z,99751.75
2023-02-28T04:50:07.631Z,99754.38
2023-02-28T04:53:10.649Z,99760.44
2023-02-28T04:56:13.406Z,99753.34
2023-02-28T04:59:15.002Z,99757.59
2023-02-28T05:02:16.552Z,99751.41
2023-02-28T05:05:19.649Z,99744.47
2023-02-28T05:08:22.740Z,99754.94
2023-02-28T05:11:26.371Z,99750.56
2023-02-28T05:14:27.958Z,99755.75
2023-02-28T05:17:29.515Z,99758.38
2023-02-28T05:20:31.241Z,99753.03
2023-02-28T05:23:34.536Z,99759.97
2023-02-28T05:26:38.039Z,99748.56
2023-02-28T05:29:44.241Z,99758.91
2023-02-28T05:32:50.915Z,99756.22
2023-02-28T05:35:52.470Z,99759.69
2023-02-28T05:38:55.606Z,99759.69
2023-02-28T05:41:57.491Z,99764.00
2023-02-28T05:44:59.125Z,99765.72
2023-02-28T05:48:00.805Z,99772.63
2023-02-28T05:51:03.576Z,99766.41
2023-02-28T05:54:06.656Z,99777.69
2023-02-28T05:57:18.941Z,99773.31
2023-02-28T06:00:25.677Z,99774.94
2023-02-28T06:03:27.857Z,99770.56
2023-02-28T06:06:30.578Z,99777.50
2023-02-28T06:09:33.504Z,99782.75
2023-02-28T06:12:35.012Z,99784.44
2023-02-28T06:15:36.667Z,99789.63
2023-02-28T06:18:38.859Z,99793.13
2023-02-28T06:21:40.704Z,99793.22
2023-02-28T06:24:43.607Z,99801.94
2023-02-28T06:27:45.264Z,99793.22
2023-02-28T06:30:47.041Z,99795.13
2023-02-28T06:33:48.790Z,99796.94
2023-02-28T06:36:51.769Z,99792.75
2023-02-28T06:39:57.097Z,99793.78
2023-02-28T06:42:59.170Z,99798.28
2023-02-28T06:46:01.889Z,99803.59
2023-02-28T06:49:03.626Z,99802.75
2023-02-28T06:52:05.739Z,99807.22
2023-02-28T06:55:09.370Z,99813.38
2023-02-28T06:58:16.964Z,99809.91
2023-02-28T07:01:18.624Z,99805.59
2023-02-28T07:04:20.263Z,99814.41
2023-02-28T07:07:21.890Z,99815.28
2023-02-28T07:10:24.785Z,99822.28
2023-02-28T07:13:26.659Z,99822.28
2023-02-28T07:16:28.335Z,99825.75
2023-02-28T07:19:30.120Z,99820.53
2023-02-28T07:22:31.799Z,99822.25
2023-02-28T07:25:34.698Z,99827.56
2023-02-28T07:28:36.269Z,99825.88
2023-02-28T07:31:38.498Z,99829.47
2023-02-28T07:34:40.239Z,99828.03
2023-02-28T07:37:42.599Z,99829.91
2023-02-28T07:40:45.548Z,99827.34
2023-02-28T07:43:47.140Z,99825.69
2023-02-28T07:46:48.849Z,99830.22
2023-02-28T07:53:51.760Z,99830.41
2023-02-28T07:56:54.759Z,99837.59
2023-02-28T07:59:56.375Z,99823.81
2023-02-28T08:02:57.916Z,99832.56
2023-02-28T08:05:59.585Z,99837.84
2023-02-28T08:09:01.230Z,99829.00
2023-02-28T08:12:04.365Z,99826.28
2023-02-28T08:15:06.373Z,99826.31
2023-02-28T08:18:10.821Z,99831.72
2023-02-28T08:21:12.797Z,99837.09
2023-02-28T08:24:14.279Z,99838.97
2023-02-28T08:27:18.327Z,99831.34
2023-02-28T08:30:20.179Z,99844.56
2023-02-28T08:33:22.023Z,99840.16
2023-02-28T08:36:24.895Z,99840.09
2023-02-28T08:39:26.497Z,99839.28
2023-02-28T08:42:29.501Z,99835.81
2023-02-28T08:45:31.701Z,99843.00
2023-02-28T08:48:35.801Z,99836.97
2023-02-28T08:51:37.484Z,99844.84
2023-02-28T08:54:39.739Z,99841.38
2023-02-28T08:57:42.753Z,99843.19
2023-02-28T09:00:44.374Z,99844.16
2023-02-28T09:03:47.146Z,99837.34
2023-02-28T09:06:49.820Z,99842.81
2023-02-28T09:09:58.796Z,99841.22
2023-02-28T09:13:01.900Z,99833.66
2023-02-28T09:16:04.910Z,99843.28
2023-02-28T09:19:06.559Z,99847.53
2023-02-28T09:22:08.111Z,99845.00
2023-02-28T09:25:09.690Z,99846.00
2023-02-28T09:28:12.712Z,99843.50
2023-02-28T09:31:14.870Z,99845.19
2023-02-28T09:34:18.622Z,99851.41
2023-02-28T09:37:20.349Z,99851.59
2023-02-28T09:40:23.588Z,99855.19
2023-02-28T09:43:29.756Z,99858.69
2023-02-28T09:46:34.176Z,99865.63
2023-02-28T09:49:39.159Z,99847.22
2023-02-28T09:52:41.159Z,99853.47
2023-02-28T09:55:47.049Z,99854.44
2023-02-28T09:58:52.717Z,99852.44
2023-02-28T10:01:58.418Z,99845.31
2023-02-28T10:05:01.621Z,99853.19
2023-02-28T10:08:06.801Z,99853.34
2023-02-28T10:11:11.550Z,99857.81
2023-02-28T10:14:19.198Z,99863.06
2023-02-28T10:17:22.012Z,99860.59
2023-02-28T10:20:30.724Z,99858.34
2023-02-28T10:23:35.851Z,99849.03
2023-02-28T10:26:37.659Z,99856.16
2023-02-28T10:29:43.500Z,99859.84
2023-02-28T10:32:48.634Z,99855.47
2023-02-28T10:35:50.739Z,99858.25
2023-02-28T10:38:52.392Z,99847.72
2023-02-28T10:41:54.782Z,99852.16
2023-02-28T10:45:08.253Z,99854.47
2023-02-28T10:48:28.093Z,99849.00
2023-02-28T10:51:35.387Z,99852.50
2023-02-28T10:54:38.807Z,99856.94
2023-02-28T10:57:40.898Z,99850.94
2023-02-28T11:00:43.861Z,99844.19
2023-02-28T11:03:45.699Z,99839.06
2023-02-28T11:06:47.461Z,99843.59
2023-02-28T11:09:50.351Z,99833.13
2023-02-28T11:12:55.552Z,99836.69
2023-02-28T11:16:00.001Z,99827.97
2023-02-28T11:19:01.678Z,99829.72
2023-02-28T11:22:05.013Z,99833.25
2023-02-28T11:25:09.066Z,99818.31
2023-02-28T11:28:25.786Z,99828.09
2023-02-28T11:31:30.894Z,99826.31
2023-02-28T11:34:33.395Z,99821.00
2023-02-28T11:37:35.565Z,99823.66
2023-02-28T11:40:42.411Z,99821.84
2023-02-28T11:43:53.492Z,99818.41
2023-02-28T11:46:59.917Z,99821.03
2023-02-28T11:50:08.621Z,99813.13
2023-02-28T11:53:14.971Z,99806.09
2023-02-28T11:56:24.228Z,99797.31
2023-02-28T11:59:46.339Z,99792.94
2023-02-28T12:03:00.137Z,99794.69
2023-02-28T12:06:10.688Z,99784.13
2023-02-28T12:09:19.799Z,99783.22
2023-02-28T12:12:25.501Z,99778.81
2023-02-28T12:15:42.627Z,99777.94
2023-02-28T12:18:54.406Z,99780.59
2023-02-28T12:22:07.781Z,99771.81
2023-02-28T12:25:25.365Z,99778.81
2023-02-28T12:28:29.583Z,99769.16
2023-02-28T12:31:33.298Z,99775.31
2023-02-28T12:34:39.343Z,99771.75
2023-02-28T12:37:44.011Z,99776.16
2023-02-28T12:40:48.759Z,99769.09
2023-02-28T12:43:54.023Z,99756.72
2023-02-28T12:46:59.270Z,99751.41
2023-02-28T12:50:04.304Z,99750.53
2023-02-28T12:53:07.936Z,99749.59
2023-02-28T12:56:16.120Z,99744.38
2023-02-28T12:59:23.931Z,99746.97
2023-02-28T13:02:44.518Z,99743.44
2023-02-28T13:06:04.743Z,99749.63
2023-02-28T13:09:10.301Z,99739.03
2023-02-28T13:12:16.244Z,99737.34
2023-02-28T13:15:22.489Z,99738.22
2023-02-28T13:18:29.784Z,99737.31
2023-02-28T13:21:42.605Z,99734.69
2023-02-28T13:24:46.107Z,99718.03
2023-02-28T13:27:51.639Z,99732.88
2023-02-28T13:31:06.013Z,99731.88
2023-02-28T13:34:15.440Z,99732.69
2023-02-28T13:37:38.034Z,99733.56
2023-02-28T13:40:39.628Z,99728.31
2023-02-28T13:44:00.654Z,99723.09
2023-02-28T13:47:20.617Z,99724.09
2023-02-28T13:50:24.906Z,99717.81
2023-02-28T13:53:37.526Z,99718.59
2023-02-28T13:56:45.971Z,99709.78
2023-02-28T13:59:51.497Z,99719.41
2023-02-28T14:03:04.187Z,99712.28
2023-02-28T14:06:10.988Z,99706.25
2023-02-28T14:09:20.439Z,99709.78
2023-02-28T14:12:40.780Z,99697.44
2023-02-28T14:15:45.918Z,99697.41
2023-02-28T14:18:51.097Z,99697.34
2023-02-28T14:22:03.735Z,99697.34
2023-02-28T14:25:18.754Z,99688.56
2023-02-28T14:28:25.554Z,99693.91
2023-02-28T14:31:31.313Z,99683.28
2023-02-28T14:34:38.697Z,99685.03
2023-02-28T14:37:42.257Z,99685.06
2023-02-28T14:40:46.643Z,99686.88
2023-02-28T14:43:49.351Z,99685.94
2023-02-28T14:46:53.116Z,99687.66
2023-02-28T14:49:54.971Z,99685.09
2023-02-28T14:52:57.405Z,99692.16
2023-02-28T14:56:01.260Z,99686.91
2023-02-28T14:59:03.088Z,99687.78
2023-02-28T15:02:17.630Z,99696.56
2023-02-28T15:05:29.586Z,99694.81
2023-02-28T15:08:36.089Z,99695.78
2023-02-28T15:11:40.085Z,99701.09
2023-02-28T15:14:43.537Z,99705.47
2023-02-28T15:17:47.912Z,99706.38
2023-02-28T15:20:50.372Z,99705.53
2023-02-28T15:23:54.272Z,99707.31
2023-02-28T15:26:59.050Z,99698.56
2023-02-28T15:30:01.610Z,99692.44
2023-02-28T15:33:09.378Z,99700.41
2023-02-28T15:36:14.379Z,99692.50
2023-02-28T15:39:23.104Z,99689.88
2023-02-28T15:42:29.245Z,99689.00
2023-02-28T15:45:36.323Z,99681.97
2023-02-28T15:48:39.015Z,99684.59
2023-02-28T15:51:40.871Z,99688.19
2023-02-28T15:54:43.903Z,99690.84
2023-02-28T15:57:47.661Z,99695.28
2023-02-28T16:01:00.997Z,99693.47
2023-02-28T16:04:04.393Z,99697.00
2023-02-28T16:07:06.930Z,99694.34
2023-02-28T16:10:10.209Z,99696.16
2023-02-28T16:13:16.152Z,99703.19
2023-02-28T16:16:18.403Z,99702.31
2023-02-28T16:19:20.143Z,99699.69
2023-02-28T16:22:22.255Z,99700.56
2023-02-28T16:25:24.847Z,99700.56
2023-02-28T16:28:30.843Z,99703.16
2023-02-28T16:31:35.751Z,99702.28
2023-02-28T16:34:37.605Z,99706.66
2023-02-28T16:37:39.778Z,99699.59
2023-02-28T16:40:41.796Z,99704.00
2023-02-28T16:43:44.640Z,99712.72
2023-02-28T16:50:13.943Z,99710.03
2023-02-28T16:53:15.985Z,99715.25
2023-02-28T16:56:19.485Z,99712.59
2023-02-28T16:59:23.054Z,99723.09
2023-02-28T17:02:25.110Z,99731.81
2023-02-28T17:05:30.239Z,99730.94
2023-02-28T17:08:33.432Z,99722.16
2023-02-28T17:11:35.050Z,99723.84
2023-02-28T17:14:36.855Z,99727.34
2023-02-28T17:17:38.821Z,99722.00
2023-02-28T17:20:44.986Z,99723.72
2023-02-28T17:23:46.647Z,99717.56
2023-02-28T17:26:48.254Z,99721.00
2023-02-28T17:29:49.907Z,99734.16
2023-02-28T17:39:27.941Z,99739.25
2023-02-28T17:42:29.506Z,99744.50
2023-02-28T17:45:31.192Z,99750.63
2023-02-28T17:48:33.103Z,99756.69
2023-02-28T17:51:34.725Z,99758.41
2023-02-28T17:54:37.879Z,99762.75
2023-02-28T17:57:39.994Z,99764.44
2023-02-28T18:00:41.749Z,99761.81
2023-02-28T18:03:43.478Z,99767.88
2023-02-28T18:06:48.364Z,99768.81
2023-02-28T18:09:51.303Z,99762.59
2023-02-28T18:12:53.465Z,99764.34
2023-02-28T18:15:55.271Z,99766.06
2023-02-28T18:18:57.744Z,99763.44
2023-02-28T18:21:59.453Z,99764.31
2023-02-28T18:25:02.357Z,99765.22
2023-02-28T18:28:05.752Z,99759.94
2023-02-28T18:31:09.594Z,99766.00
2023-02-28T18:34:11.447Z,99764.22
2023-02-28T18:37:13.584Z,99761.50
2023-02-28T18:40:16.644Z,99763.25
2023-02-28T18:43:19.109Z,99756.22
2023-02-28T18:46:21.096Z,99755.28
2023-02-28T18:49:22.874Z,99752.63
2023-02-28T18:52:24.483Z,99758.75
2023-02-28T18:58:40.989Z,99759.53
2023-02-28T19:05:03.614Z,99761.25
2023-02-28T19:08:05.334Z,99757.75
2023-02-28T19:11:07.938Z,99749.84
2023-02-28T19:14:10.830Z,99747.22
2023-02-28T19:17:14.453Z,99744.53
2023-02-28T19:20:16.740Z,99748.88
2023-02-28T19:23:19.251Z,99750.63
2023-02-28T19:26:22.663Z,99749.78
2023-02-28T19:29:25.589Z,99742.78
2023-02-28T19:36:13.411Z,99748.88
2023-02-28T19:39:14.978Z,99753.25
2023-02-28T19:42:17.361Z,99761.97
2023-02-28T19:45:20.441Z,99761.97
2023-02-28T19:48:26.168Z,99756.72
2023-02-28T19:51:28.799Z,99749.69
2023-02-28T19:54:30.860Z,99750.53
2023-02-28T19:57:32.570Z,99747.84
2023-02-28T20:00:35.721Z,99744.25
2023-02-28T20:03:39.440Z,99746.88
2023-02-28T20:06:42.034Z,99740.72
2023-02-28T20:09:44.889Z,99742.44
2023-02-28T20:12:46.637Z,99751.09
2023-02-28T20:15:49.853Z,99752.84
2023-02-28T20:18:51.607Z,99757.22
2023-02-28T20:21:53.494Z,99765.94
2023-02-28T20:24:55.131Z,99765.94
2023-02-28T20:27:57.230Z,99766.81
2023-02-28T20:31:00.875Z,99760.66
2023-02-28T20:34:02.895Z,99760.69
2023-02-28T20:40:25.589Z,99766.81
2023-02-28T20:43:27.424Z,99765.03
2023-02-28T20:46:31.727Z,99771.97
2023-02-28T20:49:33.778Z,99772.81
2023-02-28T20:52:35.328Z,99775.41
2023-02-28T20:55:37.156Z,99773.63
2023-02-28T20:58:38.767Z,99777.91
2023-02-28T21:01:44.734Z,99778.72
2023-02-28T21:04:46.371Z,99783.13
2023-02-28T21:07:48.248Z,99783.09
2023-02-28T21:10:53.219Z,99784.81
2023-02-28T21:13:55.361Z,99786.50
2023-02-28T21:16:58.520Z,99790.88
2023-02-28T21:20:00.279Z,99785.66
2023-02-28T21:23:02.424Z,99791.00
2023-02-28T21:26:05.419Z,99777.84
2023-02-28T21:29:07.508Z,99773.41
2023-02-28T21:32:10.767Z,99770.75
2023-02-28T21:35:12.654Z,99765.44
2023-02-28T21:38:14.278Z,99768.84
2023-02-28T21:44:30.712Z,99774.78
2023-02-28T21:47:36.597Z,99766.78
2023-02-28T21:50:38.675Z,99767.63
2023-02-28T21:53:44.672Z,99774.56
2023-02-28T21:56:47.034Z,99780.56
2023-02-28T21:59:48.669Z,99779.59
2023-02-28T22:02:51.540Z,99782.97
2023-02-28T22:05:53.146Z,99779.34
2023-02-28T22:08:56.391Z,99776.69
2023-02-28T22:11:58.119Z,99777.56
2023-02-28T22:14:59.687Z,99773.19
2023-02-28T22:18:02.598Z,99781.88
2023-02-28T22:21:04.625Z,99776.59
2023-02-28T22:24:06.817Z,99780.97
2023-02-28T22:27:08.572Z,99785.34
2023-02-28T22:37:26.254Z,99782.59
2023-02-28T22:40:27.743Z,99775.63
2023-02-28T22:43:30.048Z,99787.88
2023-02-28T22:46:33.171Z,99788.72
2023-02-28T22:49:35.180Z,99789.41
2023-02-28T22:52:41.008Z,99780.59
2023-02-28T22:55:42.583Z,99770.13
2023-02-28T22:58:48.305Z,99777.19
2023-02-28T23:01:50.040Z,99767.66
2023-02-28T23:04:51.834Z,99775.47
2023-02-28T23:07:54.919Z,99769.28
2023-02-28T23:10:56.488Z,99764.88
2023-02-28T23:13:58.849Z,99769.25
2023-02-28T23:17:00.673Z,99764.03
2023-02-28T23:20:02.191Z,99766.66
2023-02-28T23:23:05.446Z,99759.63
2023-02-28T23:26:07.527Z,99762.09
2023-02-28T23:29:09.642Z,99756.78
2023-02-28T23:32:11.377Z,99760.22
2023-02-28T23:35:12.990Z,99768.16
2023-02-28T23:38:15.897Z,99765.44
2023-02-28T23:41:18.096Z,99763.66
2023-02-28T23:44:19.831Z,99763.66
2023-02-28T23:47:22.343Z,99764.50
2023-02-28T23:50:23.880Z,99772.31
2023-02-28T23:53:29.771Z,99761.75
2023-02-28T23:56:31.832Z,99766.19
2023-02-28T23:59:33.906Z,99765.31
